sensor_id;sensor_type;location;lat;lon;timestamp;temperature;humidity
666;DHT22;315;48.738;9.126;2023-08-01T00:00:47;17.70;99.90
666;DHT22;315;48.738;9.126;2023-08-01T00:03:12;17.70;99.90
666;DHT22;315;48.738;9.126;2023-08-01T00:05:39;17.70;99.90
666;DHT22;315;48.738;9.126;2023-08-01T00:08:10;17.70;99.90
666;DHT22;315;48.738;9.126;2023-08-01T00:10:37;17.60;99.90
666;DHT22;315;48.738;9.126;2023-08-01T00:13:02;17.50;99.90
666;DHT22;315;48.738;9.126;2023-08-01T00:15:28;17.40;99.90
666;DHT22;315;48.738;9.126;2023-08-01T00:17:53;17.40;99.90
666;DHT22;315;48.738;9.126;2023-08-01T00:20:19;17.40;99.90
666;DHT22;315;48.738;9.126;2023-08-01T00:22:44;17.40;99.90
666;DHT22;315;48.738;9.126;2023-08-01T00:25:10;17.30;99.90
666;DHT22;315;48.738;9.126;2023-08-01T00:27:35;17.30;99.90
666;DHT22;315;48.738;9.126;2023-08-01T00:30:01;17.30;99.90
666;DHT22;315;48.738;9.126;2023-08-01T00:32:27;17.40;99.90
666;DHT22;315;48.738;9.126;2023-08-01T00:34:52;17.40;99.90
666;DHT22;315;48.738;9.126;2023-08-01T00:37:18;17.40;99.90
666;DHT22;315;48.738;9.126;2023-08-01T00:39:43;17.40;99.90
666;DHT22;315;48.738;9.126;2023-08-01T00:42:09;17.40;99.90
666;DHT22;315;48.738;9.126;2023-08-01T00:44:34;17.50;99.90
666;DHT22;315;48.738;9.126;2023-08-01T00:47:00;17.50;99.90
666;DHT22;315;48.738;9.126;2023-08-01T00:49:26;17.60;99.90
666;DHT22;315;48.738;9.126;2023-08-01T00:51:51;17.60;99.90
666;DHT22;315;48.738;9.126;2023-08-01T00:54:17;17.70;99.90
666;DHT22;315;48.738;9.126;2023-08-01T00:56:43;17.70;99.90
666;DHT22;315;48.738;9.126;2023-08-01T00:59:10;17.80;99.90
666;DHT22;315;48.738;9.126;2023-08-01T01:01:35;17.70;99.90
666;DHT22;315;48.738;9.126;2023-08-01T01:04:01;17.80;99.90
666;DHT22;315;48.738;9.126;2023-08-01T01:06:47;17.80;99.90
666;DHT22;315;48.738;9.126;2023-08-01T01:09:20;17.80;99.90
666;DHT22;315;48.738;9.126;2023-08-01T01:11:46;17.80;99.90
666;DHT22;315;48.738;9.126;2023-08-01T01:14:12;17.80;99.90
666;DHT22;315;48.738;9.126;2023-08-01T01:16:37;17.80;99.90
666;DHT22;315;48.738;9.126;2023-08-01T01:19:07;17.80;99.90
666;DHT22;315;48.738;9.126;2023-08-01T01:21:38;17.80;99.90
666;DHT22;315;48.738;9.126;2023-08-01T01:24:06;17.90;99.90
666;DHT22;315;48.738;9.126;2023-08-01T01:26:33;17.80;99.90
666;DHT22;315;48.738;9.126;2023-08-01T01:29:00;17.70;99.90
666;DHT22;315;48.738;9.126;2023-08-01T01:31:27;17.70;99.90
666;DHT22;315;48.738;9.126;2023-08-01T01:33:54;17.30;99.90
666;DHT22;315;48.738;9.126;2023-08-01T01:36:20;17.10;99.90
666;DHT22;315;48.738;9.126;2023-08-01T01:38:45;17.00;99.90
666;DHT22;315;48.738;9.126;2023-08-01T01:41:11;16.90;99.90
666;DHT22;315;48.738;9.126;2023-08-01T01:43:37;16.80;99.90
666;DHT22;315;48.738;9.126;2023-08-01T01:46:03;16.70;99.90
666;DHT22;315;48.738;9.126;2023-08-01T01:48:29;16.70;99.90
666;DHT22;315;48.738;9.126;2023-08-01T01:50:54;16.60;99.90
666;DHT22;315;48.738;9.126;2023-08-01T01:53:20;16.60;99.90
666;DHT22;315;48.738;9.126;2023-08-01T01:55:45;16.60;99.90
666;DHT22;315;48.738;9.126;2023-08-01T01:58:11;16.60;99.90
666;DHT22;315;48.738;9.126;2023-08-01T02:00:36;16.50;99.90
666;DHT22;315;48.738;9.126;2023-08-01T02:03:02;16.50;99.90
666;DHT22;315;48.738;9.126;2023-08-01T02:05:29;16.50;99.90
666;DHT22;315;48.738;9.126;2023-08-01T02:07:54;16.50;99.90
666;DHT22;315;48.738;9.126;2023-08-01T02:10:20;16.50;99.90
666;DHT22;315;48.738;9.126;2023-08-01T02:12:45;16.50;99.90
666;DHT22;315;48.738;9.126;2023-08-01T02:15:11;16.50;99.90
666;DHT22;315;48.738;9.126;2023-08-01T02:17:36;16.50;99.90
666;DHT22;315;48.738;9.126;2023-08-01T02:20:02;16.50;99.90
666;DHT22;315;48.738;9.126;2023-08-01T02:22:28;16.50;99.90
666;DHT22;315;48.738;9.126;2023-08-01T02:24:53;16.50;99.90
666;DHT22;315;48.738;9.126;2023-08-01T02:27:19;16.60;99.90
666;DHT22;315;48.738;9.126;2023-08-01T02:29:44;16.60;99.90
666;DHT22;315;48.738;9.126;2023-08-01T02:32:10;16.50;99.90
666;DHT22;315;48.738;9.126;2023-08-01T02:34:35;16.60;99.90
666;DHT22;315;48.738;9.126;2023-08-01T02:37:01;16.60;99.90
666;DHT22;315;48.738;9.126;2023-08-01T02:39:26;16.60;99.90
666;DHT22;315;48.738;9.126;2023-08-01T02:41:52;16.60;99.90
666;DHT22;315;48.738;9.126;2023-08-01T02:44:17;16.70;99.90
666;DHT22;315;48.738;9.126;2023-08-01T02:46:43;16.70;99.90
666;DHT22;315;48.738;9.126;2023-08-01T02:49:08;16.70;99.90
666;DHT22;315;48.738;9.126;2023-08-01T02:51:34;16.70;99.90
666;DHT22;315;48.738;9.126;2023-08-01T02:53:59;16.70;99.90
666;DHT22;315;48.738;9.126;2023-08-01T02:56:25;16.70;99.90
666;DHT22;315;48.738;9.126;2023-08-01T02:58:50;16.70;99.90
666;DHT22;315;48.738;9.126;2023-08-01T03:01:17;16.70;99.90
666;DHT22;315;48.738;9.126;2023-08-01T03:03:42;16.70;99.90
666;DHT22;315;48.738;9.126;2023-08-01T03:06:08;16.70;99.90
666;DHT22;315;48.738;9.126;2023-08-01T03:08:34;16.70;99.90
666;DHT22;315;48.738;9.126;2023-08-01T03:10:59;16.70;99.90
666;DHT22;315;48.738;9.126;2023-08-01T03:13:25;16.80;99.90
666;DHT22;315;48.738;9.126;2023-08-01T03:15:50;16.80;99.90
666;DHT22;315;48.738;9.126;2023-08-01T03:18:16;16.80;99.90
666;DHT22;315;48.738;9.126;2023-08-01T03:20:41;16.80;99.90
666;DHT22;315;48.738;9.126;2023-08-01T03:23:07;16.90;99.90
666;DHT22;315;48.738;9.126;2023-08-01T03:25:32;16.90;99.90
666;DHT22;315;48.738;9.126;2023-08-01T03:27:58;17.00;99.90
666;DHT22;315;48.738;9.126;2023-08-01T03:30:23;17.10;99.90
666;DHT22;315;48.738;9.126;2023-08-01T03:32:49;17.20;99.90
666;DHT22;315;48.738;9.126;2023-08-01T03:35:14;17.20;99.90
666;DHT22;315;48.738;9.126;2023-08-01T03:37:40;17.30;99.90
666;DHT22;315;48.738;9.126;2023-08-01T03:40:06;17.40;99.90
666;DHT22;315;48.738;9.126;2023-08-01T03:42:36;17.40;99.90
666;DHT22;315;48.738;9.126;2023-08-01T03:45:01;17.50;99.90
666;DHT22;315;48.738;9.126;2023-08-01T03:47:27;17.60;99.90
666;DHT22;315;48.738;9.126;2023-08-01T03:49:53;17.60;99.90
666;DHT22;315;48.738;9.126;2023-08-01T03:52:18;17.60;99.90
666;DHT22;315;48.738;9.126;2023-08-01T03:54:46;17.70;99.90
666;DHT22;315;48.738;9.126;2023-08-01T03:57:11;17.70;99.90
666;DHT22;315;48.738;9.126;2023-08-01T03:59:37;17.70;99.90
666;DHT22;315;48.738;9.126;2023-08-01T04:02:03;17.70;99.90
666;DHT22;315;48.738;9.126;2023-08-01T04:04:28;17.70;99.90
666;DHT22;315;48.738;9.126;2023-08-01T04:06:56;17.70;99.90
666;DHT22;315;48.738;9.126;2023-08-01T04:09:21;17.70;99.90
666;DHT22;315;48.738;9.126;2023-08-01T04:11:47;17.80;99.90
666;DHT22;315;48.738;9.126;2023-08-01T04:14:12;17.70;99.90
666;DHT22;315;48.738;9.126;2023-08-01T04:16:38;17.70;99.90
666;DHT22;315;48.738;9.126;2023-08-01T04:19:03;17.70;99.90
666;DHT22;315;48.738;9.126;2023-08-01T04:21:29;17.70;99.90
666;DHT22;315;48.738;9.126;2023-08-01T04:23:54;17.70;99.90
666;DHT22;315;48.738;9.126;2023-08-01T04:26:20;17.70;99.90
666;DHT22;315;48.738;9.126;2023-08-01T04:28:46;17.60;99.90
666;DHT22;315;48.738;9.126;2023-08-01T04:31:12;17.70;99.90
666;DHT22;315;48.738;9.126;2023-08-01T04:33:38;17.70;99.90
666;DHT22;315;48.738;9.126;2023-08-01T04:36:03;17.70;99.90
666;DHT22;315;48.738;9.126;2023-08-01T04:38:29;17.70;99.90
666;DHT22;315;48.738;9.126;2023-08-01T04:40:54;17.60;99.90
666;DHT22;315;48.738;9.126;2023-08-01T04:43:20;17.50;99.90
666;DHT22;315;48.738;9.126;2023-08-01T04:45:46;17.50;99.90
666;DHT22;315;48.738;9.126;2023-08-01T04:48:11;17.50;99.90
666;DHT22;315;48.738;9.126;2023-08-01T04:50:37;17.60;99.90
666;DHT22;315;48.738;9.126;2023-08-01T04:53:02;17.60;99.90
666;DHT22;315;48.738;9.126;2023-08-01T04:55:28;17.70;99.90
666;DHT22;315;48.738;9.126;2023-08-01T04:57:53;17.80;99.90
666;DHT22;315;48.738;9.126;2023-08-01T05:00:19;17.90;99.90
666;DHT22;315;48.738;9.126;2023-08-01T05:02:44;17.90;99.90
666;DHT22;315;48.738;9.126;2023-08-01T05:05:10;17.90;99.90
666;DHT22;315;48.738;9.126;2023-08-01T05:07:35;17.90;99.90
666;DHT22;315;48.738;9.126;2023-08-01T05:10:01;17.90;99.90
666;DHT22;315;48.738;9.126;2023-08-01T05:12:26;17.90;99.90
666;DHT22;315;48.738;9.126;2023-08-01T05:14:52;17.90;99.90
666;DHT22;315;48.738;9.126;2023-08-01T05:17:17;18.00;99.90
666;DHT22;315;48.738;9.126;2023-08-01T05:19:43;18.00;99.90
666;DHT22;315;48.738;9.126;2023-08-01T05:22:08;18.00;99.90
666;DHT22;315;48.738;9.126;2023-08-01T05:24:34;18.10;99.90
666;DHT22;315;48.738;9.126;2023-08-01T05:26:59;18.10;99.90
666;DHT22;315;48.738;9.126;2023-08-01T05:29:25;18.10;99.90
666;DHT22;315;48.738;9.126;2023-08-01T05:31:50;18.10;99.90
666;DHT22;315;48.738;9.126;2023-08-01T05:34:16;18.10;99.90
666;DHT22;315;48.738;9.126;2023-08-01T05:36:41;18.10;99.90
666;DHT22;315;48.738;9.126;2023-08-01T05:39:07;18.20;99.90
666;DHT22;315;48.738;9.126;2023-08-01T05:41:32;18.20;99.90
666;DHT22;315;48.738;9.126;2023-08-01T05:43:58;18.20;99.90
666;DHT22;315;48.738;9.126;2023-08-01T05:46:24;18.30;99.90
666;DHT22;315;48.738;9.126;2023-08-01T05:48:49;18.30;99.90
666;DHT22;315;48.738;9.126;2023-08-01T05:51:15;18.30;99.90
666;DHT22;315;48.738;9.126;2023-08-01T05:53:40;18.40;99.90
666;DHT22;315;48.738;9.126;2023-08-01T05:56:06;18.40;99.90
666;DHT22;315;48.738;9.126;2023-08-01T05:58:32;18.50;99.90
666;DHT22;315;48.738;9.126;2023-08-01T06:00:57;18.50;99.90
666;DHT22;315;48.738;9.126;2023-08-01T06:03:23;18.50;99.90
666;DHT22;315;48.738;9.126;2023-08-01T06:05:49;18.50;99.90
666;DHT22;315;48.738;9.126;2023-08-01T06:08:15;18.60;99.90
666;DHT22;315;48.738;9.126;2023-08-01T06:10:44;18.60;99.90
666;DHT22;315;48.738;9.126;2023-08-01T06:13:09;18.60;99.90
666;DHT22;315;48.738;9.126;2023-08-01T06:15:35;18.60;99.90
666;DHT22;315;48.738;9.126;2023-08-01T06:18:01;18.60;99.90
666;DHT22;315;48.738;9.126;2023-08-01T06:20:27;18.60;99.90
666;DHT22;315;48.738;9.126;2023-08-01T06:22:53;18.50;99.90
666;DHT22;315;48.738;9.126;2023-08-01T06:25:18;18.20;99.90
666;DHT22;315;48.738;9.126;2023-08-01T06:27:44;17.90;99.90
666;DHT22;315;48.738;9.126;2023-08-01T06:30:10;17.80;99.90
666;DHT22;315;48.738;9.126;2023-08-01T06:32:35;17.60;99.90
666;DHT22;315;48.738;9.126;2023-08-01T06:35:01;17.60;99.90
666;DHT22;315;48.738;9.126;2023-08-01T06:37:27;17.60;99.90
666;DHT22;315;48.738;9.126;2023-08-01T06:39:53;17.80;99.90
666;DHT22;315;48.738;9.126;2023-08-01T06:42:19;17.90;99.90
666;DHT22;315;48.738;9.126;2023-08-01T06:44:46;18.00;99.90
666;DHT22;315;48.738;9.126;2023-08-01T06:47:11;18.00;99.90
666;DHT22;315;48.738;9.126;2023-08-01T06:49:37;17.70;99.90
666;DHT22;315;48.738;9.126;2023-08-01T06:52:02;17.50;99.90
666;DHT22;315;48.738;9.126;2023-08-01T06:54:28;17.30;99.90
666;DHT22;315;48.738;9.126;2023-08-01T06:56:53;17.00;99.90
666;DHT22;315;48.738;9.126;2023-08-01T06:59:19;16.80;99.90
666;DHT22;315;48.738;9.126;2023-08-01T07:01:45;16.70;99.90
666;DHT22;315;48.738;9.126;2023-08-01T07:04:11;16.70;99.90
666;DHT22;315;48.738;9.126;2023-08-01T07:06:37;16.70;99.90
666;DHT22;315;48.738;9.126;2023-08-01T07:09:02;16.60;99.90
666;DHT22;315;48.738;9.126;2023-08-01T07:11:28;16.70;99.90
666;DHT22;315;48.738;9.126;2023-08-01T07:13:54;16.70;99.90
666;DHT22;315;48.738;9.126;2023-08-01T07:16:19;16.70;99.90
666;DHT22;315;48.738;9.126;2023-08-01T07:18:45;16.80;99.90
666;DHT22;315;48.738;9.126;2023-08-01T07:21:10;16.80;99.90
666;DHT22;315;48.738;9.126;2023-08-01T07:23:36;16.90;99.90
666;DHT22;315;48.738;9.126;2023-08-01T07:26:02;16.80;99.90
666;DHT22;315;48.738;9.126;2023-08-01T07:28:28;16.80;99.90
666;DHT22;315;48.738;9.126;2023-08-01T07:31:06;16.70;99.90
666;DHT22;315;48.738;9.126;2023-08-01T07:33:33;16.70;99.90
666;DHT22;315;48.738;9.126;2023-08-01T07:35:59;16.60;99.90
666;DHT22;315;48.738;9.126;2023-08-01T07:38:25;16.60;99.90
666;DHT22;315;48.738;9.126;2023-08-01T07:40:52;16.50;99.90
666;DHT22;315;48.738;9.126;2023-08-01T07:43:18;16.40;99.90
666;DHT22;315;48.738;9.126;2023-08-01T07:45:44;16.40;99.90
666;DHT22;315;48.738;9.126;2023-08-01T07:48:10;16.30;99.90
666;DHT22;315;48.738;9.126;2023-08-01T07:50:35;16.20;99.90
666;DHT22;315;48.738;9.126;2023-08-01T07:53:01;16.20;99.90
666;DHT22;315;48.738;9.126;2023-08-01T07:55:27;16.10;99.90
666;DHT22;315;48.738;9.126;2023-08-01T07:57:52;16.00;99.90
666;DHT22;315;48.738;9.126;2023-08-01T08:00:18;16.00;99.90
666;DHT22;315;48.738;9.126;2023-08-01T08:02:44;16.00;99.90
666;DHT22;315;48.738;9.126;2023-08-01T08:05:10;16.10;99.90
666;DHT22;315;48.738;9.126;2023-08-01T08:07:39;16.10;99.90
666;DHT22;315;48.738;9.126;2023-08-01T08:10:05;16.10;99.90
666;DHT22;315;48.738;9.126;2023-08-01T08:12:31;16.10;99.90
666;DHT22;315;48.738;9.126;2023-08-01T08:14:57;16.20;99.90
666;DHT22;315;48.738;9.126;2023-08-01T08:17:22;16.20;99.90
666;DHT22;315;48.738;9.126;2023-08-01T08:19:48;16.20;99.90
666;DHT22;315;48.738;9.126;2023-08-01T08:22:13;16.20;99.90
666;DHT22;315;48.738;9.126;2023-08-01T08:24:39;16.20;99.90
666;DHT22;315;48.738;9.126;2023-08-01T08:27:05;16.30;99.90
666;DHT22;315;48.738;9.126;2023-08-01T08:29:32;16.20;99.90
666;DHT22;315;48.738;9.126;2023-08-01T08:31:57;16.30;99.90
666;DHT22;315;48.738;9.126;2023-08-01T08:34:23;16.30;99.90
666;DHT22;315;48.738;9.126;2023-08-01T08:36:49;16.30;99.90
666;DHT22;315;48.738;9.126;2023-08-01T08:39:16;16.40;99.90
666;DHT22;315;48.738;9.126;2023-08-01T08:41:52;16.60;99.90
666;DHT22;315;48.738;9.126;2023-08-01T08:44:19;16.70;99.90
666;DHT22;315;48.738;9.126;2023-08-01T08:46:52;16.90;99.90
666;DHT22;315;48.738;9.126;2023-08-01T08:49:19;17.00;99.90
666;DHT22;315;48.738;9.126;2023-08-01T08:51:48;17.10;99.90
666;DHT22;315;48.738;9.126;2023-08-01T08:54:15;17.10;99.90
666;DHT22;315;48.738;9.126;2023-08-01T08:56:41;17.20;99.90
666;DHT22;315;48.738;9.126;2023-08-01T08:59:10;17.20;99.90
666;DHT22;315;48.738;9.126;2023-08-01T09:01:36;17.30;99.90
666;DHT22;315;48.738;9.126;2023-08-01T09:04:02;17.30;99.90
666;DHT22;315;48.738;9.126;2023-08-01T09:06:33;17.30;99.90
666;DHT22;315;48.738;9.126;2023-08-01T09:09:09;17.30;99.90
666;DHT22;315;48.738;9.126;2023-08-01T09:11:45;17.30;99.90
666;DHT22;315;48.738;9.126;2023-08-01T09:14:11;17.30;99.90
666;DHT22;315;48.738;9.126;2023-08-01T09:16:37;17.30;99.90
666;DHT22;315;48.738;9.126;2023-08-01T09:19:03;17.30;99.90
666;DHT22;315;48.738;9.126;2023-08-01T09:21:32;17.20;99.90
666;DHT22;315;48.738;9.126;2023-08-01T09:24:08;17.20;99.90
666;DHT22;315;48.738;9.126;2023-08-01T09:26:33;17.20;99.90
666;DHT22;315;48.738;9.126;2023-08-01T09:28:59;17.30;99.90
666;DHT22;315;48.738;9.126;2023-08-01T09:31:29;17.40;99.90
666;DHT22;315;48.738;9.126;2023-08-01T09:33:55;17.30;99.90
666;DHT22;315;48.738;9.126;2023-08-01T09:36:22;17.40;99.90
666;DHT22;315;48.738;9.126;2023-08-01T09:38:47;17.50;99.90
666;DHT22;315;48.738;9.126;2023-08-01T09:41:20;17.70;99.90
666;DHT22;315;48.738;9.126;2023-08-01T09:43:46;17.90;99.90
666;DHT22;315;48.738;9.126;2023-08-01T09:46:13;18.00;99.90
666;DHT22;315;48.738;9.126;2023-08-01T09:48:39;18.10;99.90
666;DHT22;315;48.738;9.126;2023-08-01T09:53:35;18.10;99.90
666;DHT22;315;48.738;9.126;2023-08-01T09:56:01;18.10;99.90
666;DHT22;315;48.738;9.126;2023-08-01T09:58:32;18.20;99.90
666;DHT22;315;48.738;9.126;2023-08-01T10:00:59;18.30;99.90
666;DHT22;315;48.738;9.126;2023-08-01T10:03:27;18.40;99.90
666;DHT22;315;48.738;9.126;2023-08-01T10:05:53;18.50;99.90
666;DHT22;315;48.738;9.126;2023-08-01T10:08:21;18.40;99.90
666;DHT22;315;48.738;9.126;2023-08-01T10:10:48;18.40;99.90
666;DHT22;315;48.738;9.126;2023-08-01T10:13:14;18.50;99.90
666;DHT22;315;48.738;9.126;2023-08-01T10:15:41;18.50;99.90
666;DHT22;315;48.738;9.126;2023-08-01T10:18:07;18.70;99.90
666;DHT22;315;48.738;9.126;2023-08-01T10:20:36;18.90;99.90
666;DHT22;315;48.738;9.126;2023-08-01T10:23:01;18.90;99.90
666;DHT22;315;48.738;9.126;2023-08-01T10:25:29;19.20;99.90
666;DHT22;315;48.738;9.126;2023-08-01T10:28:02;19.30;99.90
666;DHT22;315;48.738;9.126;2023-08-01T10:30:29;19.50;99.90
666;DHT22;315;48.738;9.126;2023-08-01T10:32:56;19.60;99.90
666;DHT22;315;48.738;9.126;2023-08-01T10:38:07;21.40;99.90
666;DHT22;315;48.738;9.126;2023-08-01T10:40:34;21.90;99.90
666;DHT22;315;48.738;9.126;2023-08-01T10:42:59;22.00;99.90
666;DHT22;315;48.738;9.126;2023-08-01T10:45:25;22.00;99.90
666;DHT22;315;48.738;9.126;2023-08-01T10:47:52;23.10;99.90
666;DHT22;315;48.738;9.126;2023-08-01T10:50:18;24.40;99.90
666;DHT22;315;48.738;9.126;2023-08-01T10:52:45;24.70;99.90
666;DHT22;315;48.738;9.126;2023-08-01T10:55:11;24.60;99.90
666;DHT22;315;48.738;9.126;2023-08-01T10:57:39;23.40;99.90
666;DHT22;315;48.738;9.126;2023-08-01T11:00:16;23.10;99.90
666;DHT22;315;48.738;9.126;2023-08-01T11:02:48;24.80;99.90
666;DHT22;315;48.738;9.126;2023-08-01T11:05:13;26.70;99.90
666;DHT22;315;48.738;9.126;2023-08-01T11:07:39;27.70;99.90
666;DHT22;315;48.738;9.126;2023-08-01T11:10:05;29.90;99.90
666;DHT22;315;48.738;9.126;2023-08-01T11:12:39;30.70;95.00
666;DHT22;315;48.738;9.126;2023-08-01T11:15:07;29.40;95.50
666;DHT22;315;48.738;9.126;2023-08-01T11:17:36;29.10;98.60
666;DHT22;315;48.738;9.126;2023-08-01T11:20:09;30.80;93.10
666;DHT22;315;48.738;9.126;2023-08-01T11:22:37;30.00;90.10
666;DHT22;315;48.738;9.126;2023-08-01T11:25:04;29.70;88.10
666;DHT22;315;48.738;9.126;2023-08-01T11:27:29;29.30;91.70
666;DHT22;315;48.738;9.126;2023-08-01T11:29:55;29.70;88.70
666;DHT22;315;48.738;9.126;2023-08-01T11:32:22;30.70;82.70
666;DHT22;315;48.738;9.126;2023-08-01T11:34:57;30.10;82.20
666;DHT22;315;48.738;9.126;2023-08-01T11:37:25;30.30;80.30
666;DHT22;315;48.738;9.126;2023-08-01T11:39:51;30.80;78.30
666;DHT22;315;48.738;9.126;2023-08-01T11:42:17;30.10;76.60
666;DHT22;315;48.738;9.126;2023-08-01T11:44:46;28.90;80.00
666;DHT22;315;48.738;9.126;2023-08-01T11:47:13;30.10;78.00
666;DHT22;315;48.738;9.126;2023-08-01T11:49:44;30.40;70.40
666;DHT22;315;48.738;9.126;2023-08-01T11:52:09;31.00;71.50
666;DHT22;315;48.738;9.126;2023-08-01T11:54:44;31.70;67.60
666;DHT22;315;48.738;9.126;2023-08-01T11:57:10;33.50;62.90
666;DHT22;315;48.738;9.126;2023-08-01T11:59:49;33.50;60.70
666;DHT22;315;48.738;9.126;2023-08-01T12:02:25;32.10;64.50
666;DHT22;315;48.738;9.126;2023-08-01T12:04:52;30.80;67.10
666;DHT22;315;48.738;9.126;2023-08-01T12:07:18;31.20;66.30
666;DHT22;315;48.738;9.126;2023-08-01T12:09:54;31.10;66.30
666;DHT22;315;48.738;9.126;2023-08-01T12:12:20;29.90;67.90
666;DHT22;315;48.738;9.126;2023-08-01T12:14:45;29.00;71.20
666;DHT22;315;48.738;9.126;2023-08-01T12:17:11;29.80;70.30
666;DHT22;315;48.738;9.126;2023-08-01T12:19:36;30.60;68.80
666;DHT22;315;48.738;9.126;2023-08-01T12:22:02;30.00;67.60
666;DHT22;315;48.738;9.126;2023-08-01T12:24:27;29.50;69.20
666;DHT22;315;48.738;9.126;2023-08-01T12:26:53;28.00;71.80
666;DHT22;315;48.738;9.126;2023-08-01T12:29:18;28.80;72.60
666;DHT22;315;48.738;9.126;2023-08-01T12:31:44;29.10;69.40
666;DHT22;315;48.738;9.126;2023-08-01T12:34:11;28.70;71.10
666;DHT22;315;48.738;9.126;2023-08-01T12:36:36;29.40;73.30
666;DHT22;315;48.738;9.126;2023-08-01T12:39:02;31.50;65.60
666;DHT22;315;48.738;9.126;2023-08-01T12:41:28;33.60;61.50
666;DHT22;315;48.738;9.126;2023-08-01T12:43:54;33.00;60.70
666;DHT22;315;48.738;9.126;2023-08-01T12:46:19;31.90;62.20
666;DHT22;315;48.738;9.126;2023-08-01T12:48:45;32.50;60.20
666;DHT22;315;48.738;9.126;2023-08-01T12:51:11;33.90;58.20
666;DHT22;315;48.738;9.126;2023-08-01T12:53:36;35.20;54.00
666;DHT22;315;48.738;9.126;2023-08-01T12:56:03;35.40;52.90
666;DHT22;315;48.738;9.126;2023-08-01T12:58:28;35.70;50.70
666;DHT22;315;48.738;9.126;2023-08-01T13:00:54;37.10;49.00
666;DHT22;315;48.738;9.126;2023-08-01T13:03:21;38.60;47.00
666;DHT22;315;48.738;9.126;2023-08-01T13:05:46;39.90;44.80
666;DHT22;315;48.738;9.126;2023-08-01T13:08:12;36.30;45.40
666;DHT22;315;48.738;9.126;2023-08-01T13:10:38;34.50;46.30
666;DHT22;315;48.738;9.126;2023-08-01T13:13:04;34.90;47.30
666;DHT22;315;48.738;9.126;2023-08-01T13:15:30;35.70;47.10
666;DHT22;315;48.738;9.126;2023-08-01T13:17:55;36.50;45.50
666;DHT22;315;48.738;9.126;2023-08-01T13:20:21;36.50;45.00
666;DHT22;315;48.738;9.126;2023-08-01T13:22:49;37.00;43.70
666;DHT22;315;48.738;9.126;2023-08-01T13:25:15;36.70;43.50
666;DHT22;315;48.738;9.126;2023-08-01T13:27:41;36.40;43.60
666;DHT22;315;48.738;9.126;2023-08-01T13:30:07;35.20;44.20
666;DHT22;315;48.738;9.126;2023-08-01T13:32:33;34.70;45.10
666;DHT22;315;48.738;9.126;2023-08-01T13:34:59;35.10;44.70
666;DHT22;315;48.738;9.126;2023-08-01T13:37:25;33.00;46.90
666;DHT22;315;48.738;9.126;2023-08-01T13:39:50;30.50;49.60
666;DHT22;315;48.738;9.126;2023-08-01T13:42:16;30.10;50.70
666;DHT22;315;48.738;9.126;2023-08-01T13:44:41;29.60;52.00
666;DHT22;315;48.738;9.126;2023-08-01T13:47:07;28.30;55.30
666;DHT22;315;48.738;9.126;2023-08-01T13:49:33;27.80;56.60
666;DHT22;315;48.738;9.126;2023-08-01T13:51:59;27.30;60.50
666;DHT22;315;48.738;9.126;2023-08-01T13:54:25;26.70;62.80
666;DHT22;315;48.738;9.126;2023-08-01T13:56:51;26.50;65.90
666;DHT22;315;48.738;9.126;2023-08-01T13:59:17;26.50;66.20
666;DHT22;315;48.738;9.126;2023-08-01T14:01:42;26.20;71.90
666;DHT22;315;48.738;9.126;2023-08-01T14:04:08;26.30;70.90
666;DHT22;315;48.738;9.126;2023-08-01T14:06:33;26.20;70.40
666;DHT22;315;48.738;9.126;2023-08-01T14:08:59;25.70;66.00
666;DHT22;315;48.738;9.126;2023-08-01T14:11:24;25.30;68.30
666;DHT22;315;48.738;9.126;2023-08-01T14:13:50;25.10;71.00
666;DHT22;315;48.738;9.126;2023-08-01T14:16:15;25.10;69.40
666;DHT22;315;48.738;9.126;2023-08-01T14:18:42;25.00;70.70
666;DHT22;315;48.738;9.126;2023-08-01T14:21:09;24.90;72.40
666;DHT22;315;48.738;9.126;2023-08-01T14:23:34;24.60;75.00
666;DHT22;315;48.738;9.126;2023-08-01T14:26:02;24.50;75.20
666;DHT22;315;48.738;9.126;2023-08-01T14:28:27;24.50;77.00
666;DHT22;315;48.738;9.126;2023-08-01T14:30:53;24.40;76.50
666;DHT22;315;48.738;9.126;2023-08-01T14:33:18;24.40;73.60
666;DHT22;315;48.738;9.126;2023-08-01T14:35:46;24.40;72.40
666;DHT22;315;48.738;9.126;2023-08-01T14:38:12;24.40;70.80
666;DHT22;315;48.738;9.126;2023-08-01T14:40:37;24.40;71.80
666;DHT22;315;48.738;9.126;2023-08-01T14:43:04;24.40;69.20
666;DHT22;315;48.738;9.126;2023-08-01T14:45:30;24.50;73.20
666;DHT22;315;48.738;9.126;2023-08-01T14:47:56;24.50;72.60
666;DHT22;315;48.738;9.126;2023-08-01T14:50:21;24.50;71.10
666;DHT22;315;48.738;9.126;2023-08-01T14:52:47;24.50;71.70
666;DHT22;315;48.738;9.126;2023-08-01T14:55:12;24.70;71.90
666;DHT22;315;48.738;9.126;2023-08-01T14:57:38;24.70;70.50
666;DHT22;315;48.738;9.126;2023-08-01T15:00:04;24.90;70.90
666;DHT22;315;48.738;9.126;2023-08-01T15:02:30;24.60;69.10
666;DHT22;315;48.738;9.126;2023-08-01T15:04:56;24.60;71.60
666;DHT22;315;48.738;9.126;2023-08-01T15:07:23;24.50;71.60
666;DHT22;315;48.738;9.126;2023-08-01T15:09:49;24.50;71.70
666;DHT22;315;48.738;9.126;2023-08-01T15:12:16;24.50;74.20
666;DHT22;315;48.738;9.126;2023-08-01T15:14:42;24.30;73.50
666;DHT22;315;48.738;9.126;2023-08-01T15:17:08;24.20;74.60
666;DHT22;315;48.738;9.126;2023-08-01T15:19:35;24.20;75.60
666;DHT22;315;48.738;9.126;2023-08-01T15:22:01;24.20;74.20
666;DHT22;315;48.738;9.126;2023-08-01T15:24:26;24.20;74.90
666;DHT22;315;48.738;9.126;2023-08-01T15:26:52;24.20;73.60
666;DHT22;315;48.738;9.126;2023-08-01T15:29:18;24.20;73.70
666;DHT22;315;48.738;9.126;2023-08-01T15:31:43;24.20;73.50
666;DHT22;315;48.738;9.126;2023-08-01T15:34:09;24.30;74.90
666;DHT22;315;48.738;9.126;2023-08-01T15:36:35;24.20;75.80
666;DHT22;315;48.738;9.126;2023-08-01T15:39:01;24.00;75.70
666;DHT22;315;48.738;9.126;2023-08-01T15:41:27;24.10;74.30
666;DHT22;315;48.738;9.126;2023-08-01T15:43:53;24.00;76.80
666;DHT22;315;48.738;9.126;2023-08-01T15:46:19;23.80;78.00
666;DHT22;315;48.738;9.126;2023-08-01T15:48:44;23.60;76.40
666;DHT22;315;48.738;9.126;2023-08-01T15:51:10;23.60;75.00
666;DHT22;315;48.738;9.126;2023-08-01T15:53:37;23.70;75.50
666;DHT22;315;48.738;9.126;2023-08-01T15:56:04;23.70;75.80
666;DHT22;315;48.738;9.126;2023-08-01T15:58:30;23.70;75.20
666;DHT22;315;48.738;9.126;2023-08-01T16:00:56;23.60;75.80
666;DHT22;315;48.738;9.126;2023-08-01T16:03:22;23.40;78.60
666;DHT22;315;48.738;9.126;2023-08-01T16:05:48;23.30;76.70
666;DHT22;315;48.738;9.126;2023-08-01T16:08:14;23.20;77.80
666;DHT22;315;48.738;9.126;2023-08-01T16:10:43;23.10;80.20
666;DHT22;315;48.738;9.126;2023-08-01T16:13:10;23.20;80.50
666;DHT22;315;48.738;9.126;2023-08-01T16:15:37;23.20;81.70
666;DHT22;315;48.738;9.126;2023-08-01T16:18:03;23.20;82.20
666;DHT22;315;48.738;9.126;2023-08-01T16:20:28;23.20;81.10
666;DHT22;315;48.738;9.126;2023-08-01T16:22:54;23.10;79.90
666;DHT22;315;48.738;9.126;2023-08-01T16:25:20;23.10;79.50
666;DHT22;315;48.738;9.126;2023-08-01T16:27:45;23.10;79.40
666;DHT22;315;48.738;9.126;2023-08-01T16:30:11;23.00;78.80
666;DHT22;315;48.738;9.126;2023-08-01T16:32:37;22.80;78.90